X  Fechar Metar - Info de Aeroporto        LGTS Thessaloniki Macedonia International
Temperatura
16°C Temperatura
8°C Ptº Orvalho
59% Humidade



Vento
3 M/S
7 MPH
11 KM/H
6 NÓS



150°
SSL
Condições Atuais

Partly Cloudy Pouco Nublado
Pressão 1015 (hPa) - 29.97 (inHg)
Visibilidade 6 (milha) - 10 (km)
Aeroporto
Código-Aeropoto LGTS

Localização: Thessaloniki Macedonia International
Distância: 85 (km)

Metar:
METAR LGTS 292320Z 15006KT 9999 SCT020 16/08 Q1015 NOSIG

Hora: 01-03-2024 01:20 EET